Time;durP1;ratioP1;P1;durP2;ratioP2;P2;SDS_P1;SDS_P2;PMS_P1;PMS_P2;Temp;Humidity;BMP_temperature;BMP_pressure;BME280_temperature;BME280_humidity;BME280_pressure;Samples;Min_cycle;Max_cycle;Signal;HPM_P1;HPM_P2
2023/09/06 00:02:25;;;;;;;5.82;3.58;;;28.40;99.90;;;;;;4953250;29;20051;-54
2023/09/06 00:04:51;;;;;;;8.20;4.45;;;28.50;99.90;;;;;;4947058;28;20050;-53
2023/09/06 00:07:17;;;;;;;5.50;3.40;;;28.50;99.90;;;;;;4946823;28;20031;-53
2023/09/06 00:09:43;;;;;;;6.10;2.80;;;28.50;99.90;;;;;;4953559;29;20356;-53
2023/09/06 00:12:08;;;;;;;4.85;3.08;;;28.50;99.90;;;;;;4953714;29;20479;-53
2023/09/06 00:14:36;;;;;;;7.03;3.10;;;28.50;99.90;;;;;;4953836;28;20031;-52
2023/09/06 00:17:02;;;;;;;4.78;3.33;;;28.50;99.90;;;;;;4952384;29;20118;-54
2023/09/06 00:19:29;;;;;;;3.80;3.03;;;28.40;99.90;;;;;;4950192;28;20039;-53
2023/09/06 00:21:55;;;;;;;6.68;3.53;;;28.50;99.90;;;;;;4955284;29;20485;-54
2023/09/06 00:24:20;;;;;;;4.10;3.00;;;28.40;99.90;;;;;;4957412;29;20023;-53
2023/09/06 00:26:46;;;;;;;4.80;3.05;;;28.50;99.90;;;;;;4957429;29;20078;-52
2023/09/06 00:29:12;;;;;;;3.38;2.67;;;28.50;99.90;;;;;;4972019;28;20027;-53
2023/09/06 00:31:38;;;;;;;3.55;2.80;;;28.50;99.90;;;;;;4957051;29;20027;-53
2023/09/06 00:34:04;;;;;;;4.70;3.25;;;28.50;99.90;;;;;;4957864;28;20386;-53
2023/09/06 00:36:32;;;;;;;5.95;3.70;;;28.50;99.90;;;;;;4956966;29;20546;-52
2023/09/06 00:38:58;;;;;;;6.32;3.30;;;28.40;99.90;;;;;;4956352;29;20381;-52
2023/09/06 00:41:25;;;;;;;5.82;3.13;;;28.50;99.90;;;;;;4955515;28;20023;-52
2023/09/06 00:43:51;;;;;;;4.80;3.03;;;28.50;99.90;;;;;;4974119;28;20415;-52
2023/09/06 00:46:18;;;;;;;5.65;3.35;;;28.50;99.90;;;;;;4976787;28;20031;-52
2023/09/06 00:48:45;;;;;;;6.10;2.90;;;28.40;99.90;;;;;;4957897;28;20030;-54
2023/09/06 00:51:11;;;;;;;6.55;3.15;;;28.40;99.90;;;;;;4956336;29;20031;-52
2023/09/06 00:53:37;;;;;;;3.90;2.88;;;28.40;99.90;;;;;;4956389;28;20030;-53
2023/09/06 00:56:03;;;;;;;4.40;3.00;;;28.40;99.90;;;;;;4946776;29;20472;-53
2023/09/06 00:58:30;;;;;;;6.95;3.30;;;28.50;99.90;;;;;;4957202;28;20027;-52
2023/09/06 01:00:56;;;;;;;6.28;3.15;;;28.40;99.90;;;;;;4956765;28;20051;-52
2023/09/06 01:03:21;;;;;;;3.92;2.67;;;28.50;99.90;;;;;;4956942;29;20059;-52
2023/09/06 01:06:05;;;;;;;4.60;2.85;;;28.40;99.90;;;;;;4956978;28;20067;-51
2023/09/06 01:08:57;;;;;;;5.22;2.88;;;28.40;99.90;;;;;;4956890;28;20391;-51
2023/09/06 01:11:25;;;;;;;4.15;3.10;;;28.40;99.90;;;;;;4958539;28;20043;-52
2023/09/06 01:13:59;;;;;;;5.60;3.00;;;28.40;99.90;;;;;;4957159;28;20494;-51
2023/09/06 01:16:42;;;;;;;5.00;2.83;;;28.40;99.90;;;;;;4956627;28;20027;-52
2023/09/06 01:19:12;;;;;;;4.53;2.85;;;28.40;99.90;;;;;;4956917;28;20039;-52
2023/09/06 01:22:20;;;;;;;4.70;2.60;;;28.40;99.90;;;;;;4956730;29;20479;-53
2023/09/06 01:24:47;;;;;;;4.78;3.03;;;28.40;99.90;;;;;;4956426;28;20030;-53
2023/09/06 01:27:13;;;;;;;6.53;3.55;;;28.40;99.90;;;;;;4956412;28;20095;-52
2023/09/06 01:29:39;;;;;;;4.47;2.90;;;28.40;99.90;;;;;;4956932;28;20117;-52
2023/09/06 01:32:06;;;;;;;4.63;3.28;;;28.40;99.90;;;;;;4956290;28;20479;-53
2023/09/06 01:34:32;;;;;;;4.32;2.83;;;28.40;99.90;;;;;;4956425;28;20085;-51
2023/09/06 01:36:58;;;;;;;4.78;2.83;;;28.40;99.90;;;;;;4956496;29;20027;-52
2023/09/06 01:39:23;;;;;;;3.97;2.70;;;28.40;99.90;;;;;;4956649;28;20045;-54
2023/09/06 01:41:49;;;;;;;6.40;3.10;;;28.40;99.90;;;;;;4956036;28;20035;-53
2023/09/06 01:44:15;;;;;;;3.17;2.47;;;28.40;99.90;;;;;;4956585;28;20321;-52
2023/09/06 01:46:41;;;;;;;6.15;3.00;;;28.40;99.90;;;;;;4956538;28;20031;-52
2023/09/06 01:49:08;;;;;;;4.85;3.08;;;28.40;99.90;;;;;;4956548;28;20115;-55
2023/09/06 01:51:35;;;;;;;5.32;2.65;;;28.40;99.90;;;;;;4956468;28;20090;-54
2023/09/06 01:54:06;;;;;;;4.25;2.90;;;28.40;99.90;;;;;;4956001;28;20070;-55
2023/09/06 01:56:32;;;;;;;4.40;2.70;;;28.40;99.90;;;;;;4956054;28;20059;-54
2023/09/06 01:58:58;;;;;;;5.90;2.80;;;28.40;99.90;;;;;;4954868;29;20066;-55
2023/09/06 02:01:24;;;;;;;3.88;2.67;;;28.40;99.90;;;;;;4956545;28;20051;-54
2023/09/06 02:03:50;;;;;;;6.85;2.55;;;28.40;99.90;;;;;;4956208;29;20030;-54
2023/09/06 02:06:16;;;;;;;5.45;3.00;;;28.40;99.90;;;;;;4955540;29;20118;-54
2023/09/06 02:08:42;;;;;;;3.22;2.38;;;28.40;99.90;;;;;;4956228;29;20110;-55
2023/09/06 02:11:07;;;;;;;3.95;2.80;;;28.40;99.90;;;;;;4955846;28;20031;-55
2023/09/06 02:13:33;;;;;;;3.97;2.92;;;28.40;99.90;;;;;;4955829;28;20124;-54
2023/09/06 02:16:02;;;;;;;4.00;2.92;;;28.40;99.90;;;;;;4955925;29;20038;-54
2023/09/06 02:18:28;;;;;;;4.05;2.55;;;28.40;99.90;;;;;;4955876;28;20110;-55
2023/09/06 02:20:58;;;;;;;4.95;3.05;;;28.40;99.90;;;;;;4956087;28;20114;-55
2023/09/06 02:23:24;;;;;;;3.17;2.50;;;28.40;99.90;;;;;;4970151;28;20027;-54
2023/09/06 02:25:50;;;;;;;4.53;2.85;;;28.40;99.90;;;;;;4955651;28;20039;-55
2023/09/06 02:28:17;;;;;;;2.88;2.30;;;28.40;99.90;;;;;;4955850;28;20078;-54
2023/09/06 02:30:43;;;;;;;4.60;2.40;;;28.40;99.90;;;;;;4955826;28;20094;-54
2023/09/06 02:33:14;;;;;;;4.25;2.97;;;28.40;99.90;;;;;;4955314;29;20031;-54
2023/09/06 02:35:41;;;;;;;3.30;2.72;;;28.40;99.90;;;;;;4955538;29;20028;-53
2023/09/06 02:38:11;;;;;;;4.47;2.97;;;28.40;99.90;;;;;;4955462;28;20023;-54
2023/09/06 02:40:40;;;;;;;3.92;2.75;;;28.30;99.90;;;;;;4954974;28;20090;-52
2023/09/06 02:43:07;;;;;;;3.13;2.60;;;28.40;99.90;;;;;;4954835;28;20019;-53
2023/09/06 02:45:39;;;;;;;3.88;2.75;;;28.40;99.90;;;;;;4955138;28;20035;-53
2023/09/06 02:48:07;;;;;;;3.85;2.45;;;28.40;99.90;;;;;;4955360;28;20403;-56
2023/09/06 02:50:34;;;;;;;4.05;2.58;;;28.40;99.90;;;;;;4955231;28;20034;-54
2023/09/06 02:53:02;;;;;;;4.75;3.08;;;28.40;99.90;;;;;;4955187;28;20024;-54
2023/09/06 02:55:28;;;;;;;4.65;2.80;;;28.30;99.90;;;;;;4955137;28;20027;-54
2023/09/06 02:57:55;;;;;;;5.82;3.30;;;28.30;99.90;;;;;;4954913;28;20480;-54
2023/09/06 03:00:26;;;;;;;3.35;2.83;;;28.30;99.90;;;;;;4955501;29;20046;-54
2023/09/06 03:03:05;;;;;;;3.60;2.67;;;28.40;99.90;;;;;;4954881;28;20082;-53
2023/09/06 03:05:31;;;;;;;3.30;2.45;;;28.30;99.90;;;;;;4954862;28;20384;-53
2023/09/06 03:07:57;;;;;;;5.57;2.63;;;28.30;99.90;;;;;;4954916;29;20027;-55
2023/09/06 03:10:23;;;;;;;4.47;2.70;;;28.30;99.90;;;;;;4953825;28;20762;-54
2023/09/06 03:12:57;;;;;;;3.75;2.53;;;28.30;99.90;;;;;;4953489;28;20077;-54
2023/09/06 03:15:24;;;;;;;3.75;2.80;;;28.30;99.90;;;;;;4954365;28;20029;-53
2023/09/06 03:17:51;;;;;;;3.78;3.25;;;28.30;99.90;;;;;;4954045;29;20531;-53
2023/09/06 03:20:19;;;;;;;4.40;2.95;;;28.30;99.90;;;;;;4953869;28;20165;-53
2023/09/06 03:22:51;;;;;;;3.25;2.63;;;28.30;99.90;;;;;;4954609;28;20038;-53
2023/09/06 03:25:17;;;;;;;3.92;2.60;;;28.30;99.90;;;;;;4953806;28;20374;-54
2023/09/06 03:27:44;;;;;;;6.05;2.58;;;28.30;99.90;;;;;;4954452;28;20087;-54
2023/09/06 03:30:14;;;;;;;4.82;2.80;;;28.30;99.90;;;;;;4953906;28;20495;-54
2023/09/06 03:32:42;;;;;;;3.25;2.50;;;28.30;99.90;;;;;;4954294;28;20023;-52
2023/09/06 03:35:08;;;;;;;3.75;2.92;;;28.30;99.90;;;;;;4954188;29;20035;-55
2023/09/06 03:37:34;;;;;;;4.40;3.42;;;28.30;99.90;;;;;;4953641;29;20365;-54
2023/09/06 03:40:00;;;;;;;4.85;3.38;;;28.30;99.90;;;;;;4953431;29;20046;-55
2023/09/06 03:42:26;;;;;;;3.78;2.78;;;28.30;99.90;;;;;;4954268;28;20423;-54
2023/09/06 03:44:52;;;;;;;3.95;2.75;;;28.30;99.90;;;;;;4953191;28;20034;-55
2023/09/06 03:47:19;;;;;;;5.03;3.20;;;28.30;99.90;;;;;;4954359;28;20039;-54
2023/09/06 03:49:45;;;;;;;4.68;2.95;;;28.30;99.90;;;;;;4954490;28;20031;-55
2023/09/06 03:52:12;;;;;;;6.35;3.03;;;28.30;99.90;;;;;;4954267;28;20027;-55
2023/09/06 03:54:38;;;;;;;5.00;2.83;;;28.30;99.90;;;;;;4954223;28;20514;-56
2023/09/06 03:57:04;;;;;;;4.90;3.38;;;28.30;99.90;;;;;;4954338;28;20027;-56
2023/09/06 03:59:37;;;;;;;5.57;3.47;;;28.30;99.90;;;;;;4953963;28;20387;-54
2023/09/06 04:02:07;;;;;;;5.05;3.33;;;28.30;99.90;;;;;;4953753;28;20047;-54
2023/09/06 04:04:34;;;;;;;4.57;2.80;;;28.30;99.90;;;;;;4954052;28;20061;-54
2023/09/06 04:07:01;;;;;;;4.93;2.97;;;28.30;99.90;;;;;;4954174;28;20494;-54
2023/09/06 04:09:37;;;;;;;4.57;2.83;;;28.30;99.90;;;;;;4954136;28;20035;-56
2023/09/06 04:12:05;;;;;;;3.40;2.92;;;28.30;99.90;;;;;;4953616;28;20177;-54
2023/09/06 04:14:35;;;;;;;3.88;2.92;;;28.30;99.90;;;;;;4952862;29;20091;-53
2023/09/06 04:17:01;;;;;;;3.28;2.55;;;28.30;99.90;;;;;;4954664;28;20046;-53
2023/09/06 04:19:27;;;;;;;3.72;2.97;;;28.30;99.90;;;;;;4954082;28;20037;-55
2023/09/06 04:21:53;;;;;;;3.78;2.78;;;28.30;99.90;;;;;;4954102;29;20027;-54
2023/09/06 04:24:20;;;;;;;3.55;2.72;;;28.30;99.90;;;;;;4954068;29;20028;-54
2023/09/06 04:26:46;;;;;;;;;;;28.20;99.90;;;;;;4954201;29;20464;-53
2023/09/06 04:29:11;;;;;;;3.90;2.67;;;28.20;99.90;;;;;;4953761;28;19934;-54
2023/09/06 04:31:41;;;;;;;4.43;3.25;;;28.20;99.90;;;;;;4953862;28;20064;-54
2023/09/06 04:34:07;;;;;;;4.35;3.13;;;28.20;99.90;;;;;;4953672;28;20027;-54
2023/09/06 04:36:36;;;;;;;5.03;3.28;;;28.20;99.90;;;;;;4953860;29;20046;-54
2023/09/06 04:39:03;;;;;;;7.28;3.50;;;28.20;99.90;;;;;;4953332;28;20043;-56
2023/09/06 04:41:31;;;;;;;4.88;3.00;;;28.20;99.90;;;;;;4953809;28;20028;-54
2023/09/06 04:43:57;;;;;;;5.38;3.13;;;28.20;99.90;;;;;;4953932;28;20066;-54
2023/09/06 04:46:22;;;;;;;4.90;2.80;;;28.20;99.90;;;;;;4953769;28;20062;-54
2023/09/06 04:48:48;;;;;;;5.43;2.60;;;28.20;99.90;;;;;;4953750;28;20034;-54
2023/09/06 04:51:14;;;;;;;5.93;3.20;;;28.20;99.90;;;;;;4953784;28;20034;-54
2023/09/06 04:53:40;;;;;;;5.95;3.47;;;28.20;99.90;;;;;;4953736;29;20019;-54
2023/09/06 04:56:06;;;;;;;4.28;3.22;;;28.20;99.90;;;;;;4953785;28;20027;-55
2023/09/06 04:58:33;;;;;;;4.35;3.30;;;28.20;99.90;;;;;;4953659;28;20019;-54
2023/09/06 05:01:06;;;;;;;5.43;3.42;;;28.20;99.90;;;;;;4955965;28;20057;-55
2023/09/06 05:03:33;;;;;;;4.18;2.78;;;28.20;99.90;;;;;;4951389;28;20028;-55
2023/09/06 05:06:00;;;;;;;4.85;2.95;;;28.10;99.90;;;;;;4952581;28;20027;-54
2023/09/06 05:08:25;;;;;;;7.03;3.20;;;28.10;99.90;;;;;;4954924;29;20030;-54
2023/09/06 05:10:51;;;;;;;5.43;3.17;;;28.10;99.90;;;;;;4953898;28;20273;-54
2023/09/06 05:13:18;;;;;;;5.28;3.10;;;28.10;99.90;;;;;;4954962;28;20026;-54
2023/09/06 05:15:44;;;;;;;4.95;3.05;;;28.10;99.90;;;;;;4950921;29;20477;-54
2023/09/06 05:18:11;;;;;;;4.40;3.10;;;28.10;99.90;;;;;;4956935;28;20042;-54
2023/09/06 05:20:39;;;;;;;5.60;3.15;;;28.10;99.90;;;;;;4956689;28;20035;-54
2023/09/06 05:23:06;;;;;;;4.65;3.00;;;28.10;99.90;;;;;;4955635;28;20377;-54
2023/09/06 05:25:33;;;;;;;5.90;3.30;;;28.10;99.90;;;;;;4956264;28;20027;-53
2023/09/06 05:28:17;;;;;;;6.83;3.43;;;28.10;99.90;;;;;;4956134;28;20027;-54
2023/09/06 05:30:45;;;;;;;6.18;3.28;;;28.10;99.90;;;;;;4956625;28;20324;-53
2023/09/06 05:33:13;;;;;;;6.07;3.13;;;28.00;99.90;;;;;;4957073;29;20090;-53
2023/09/06 05:35:41;;;;;;;3.95;2.67;;;28.10;99.90;;;;;;4956236;28;20030;-53
2023/09/06 05:38:06;;;;;;;;;;;28.10;99.90;;;;;;4956913;28;20035;-54
2023/09/06 05:40:34;;;;;;;5.10;2.85;;;28.00;99.90;;;;;;4956020;28;19969;-54
2023/09/06 05:43:00;;;;;;;5.20;3.08;;;28.00;99.90;;;;;;4956222;28;20031;-53
2023/09/06 05:45:26;;;;;;;5.78;3.42;;;28.00;99.90;;;;;;4956148;28;20415;-55
2023/09/06 05:47:53;;;;;;;6.10;3.53;;;28.00;99.90;;;;;;4971435;28;20027;-54
2023/09/06 05:50:19;;;;;;;4.53;2.67;;;28.00;99.90;;;;;;4955924;28;20078;-54
2023/09/06 05:52:45;;;;;;;4.25;3.22;;;28.00;99.90;;;;;;4956278;29;20054;-54
2023/09/06 05:55:11;;;;;;;8.57;3.42;;;28.00;99.90;;;;;;4956222;28;20023;-52
2023/09/06 05:57:37;;;;;;;7.75;3.30;;;28.00;99.90;;;;;;4955905;28;20028;-54
2023/09/06 06:00:07;;;;;;;4.25;2.72;;;28.00;99.90;;;;;;4956161;28;20070;-53
2023/09/06 06:02:33;;;;;;;4.47;2.85;;;28.00;99.90;;;;;;4955763;28;20050;-53
2023/09/06 06:04:58;;;;;;;5.63;2.90;;;28.00;99.90;;;;;;4954520;28;20031;-53
2023/09/06 06:07:24;;;;;;;6.65;2.90;;;28.00;99.90;;;;;;4955481;28;20031;-53
2023/09/06 06:09:50;;;;;;;5.53;2.63;;;28.00;99.90;;;;;;4956016;28;20508;-52
2023/09/06 06:12:22;;;;;;;5.20;2.92;;;27.90;99.90;;;;;;4955213;28;20373;-52
2023/09/06 06:14:49;;;;;;;6.30;2.92;;;27.90;99.90;;;;;;4955457;29;20094;-53
2023/09/06 06:17:15;;;;;;;6.55;3.47;;;28.00;99.90;;;;;;4954708;28;20019;-52
2023/09/06 06:19:41;;;;;;;4.30;2.70;;;27.90;99.90;;;;;;4955728;28;20105;-53
2023/09/06 06:22:06;;;;;;;6.35;3.20;;;27.90;99.90;;;;;;4956093;28;20031;-53
2023/09/06 06:24:35;;;;;;;3.85;2.67;;;28.00;99.90;;;;;;4954500;28;20027;-53
2023/09/06 06:27:01;;;;;;;6.35;3.10;;;28.00;99.90;;;;;;4955724;28;20027;-53
2023/09/06 06:29:28;;;;;;;4.68;2.80;;;27.90;99.90;;;;;;4955566;28;20027;-53
2023/09/06 06:31:53;;;;;;;4.40;2.88;;;28.00;99.90;;;;;;4955351;28;20022;-53
2023/09/06 06:34:19;;;;;;;5.38;2.90;;;28.00;99.90;;;;;;4955387;28;20396;-53
2023/09/06 06:36:46;;;;;;;5.43;2.83;;;27.90;99.90;;;;;;4955114;29;20023;-54
2023/09/06 06:39:13;;;;;;;4.45;2.58;;;28.00;99.90;;;;;;4953747;29;20035;-53
2023/09/06 06:41:40;;;;;;;4.60;2.47;;;27.90;99.90;;;;;;4955250;28;20050;-52
2023/09/06 06:44:06;;;;;;;6.38;3.13;;;27.90;99.90;;;;;;4954830;28;20023;-53
2023/09/06 06:46:37;;;;;;;6.07;2.90;;;27.90;99.90;;;;;;4955099;28;20468;-53
2023/09/06 06:49:07;;;;;;;5.75;2.90;;;27.90;99.90;;;;;;4955317;28;20030;-52
2023/09/06 06:51:38;;;;;;;5.30;2.55;;;27.90;99.90;;;;;;4955213;28;20036;-51
2023/09/06 06:54:09;;;;;;;6.88;2.45;;;28.00;99.90;;;;;;4954848;28;20016;-52
2023/09/06 06:56:36;;;;;;;5.07;2.30;;;28.00;99.90;;;;;;4955130;28;20114;-52
2023/09/06 06:59:03;;;;;;;4.30;2.50;;;28.00;99.90;;;;;;4954937;28;20114;-53
2023/09/06 07:01:30;;;;;;;4.47;2.70;;;28.00;99.90;;;;;;4954554;28;20051;-53
2023/09/06 07:03:57;;;;;;;3.13;2.17;;;28.00;99.90;;;;;;4954924;28;20028;-53
2023/09/06 07:06:24;;;;;;;4.97;2.85;;;28.00;99.90;;;;;;4954994;28;20036;-52
2023/09/06 07:08:51;;;;;;;4.80;2.33;;;28.00;99.90;;;;;;4954894;28;20067;-52
2023/09/06 07:11:19;;;;;;;2.95;2.33;;;28.00;99.90;;;;;;4954397;28;20023;-54
2023/09/06 07:13:49;;;;;;;3.42;2.50;;;28.00;99.90;;;;;;4953618;29;20035;-51
2023/09/06 07:16:17;;;;;;;4.00;2.53;;;28.00;99.90;;;;;;4954826;28;20019;-51
2023/09/06 07:18:43;;;;;;;4.05;2.60;;;28.00;99.90;;;;;;4954625;29;20049;-52
2023/09/06 07:21:09;;;;;;;3.55;2.38;;;28.00;99.90;;;;;;4954684;28;20082;-52
2023/09/06 07:23:35;;;;;;;4.15;2.60;;;28.00;99.90;;;;;;4954533;29;20027;-52
2023/09/06 07:26:01;;;;;;;3.42;2.28;;;28.00;99.90;;;;;;4952946;28;20444;-51
2023/09/06 07:28:39;;;;;;;4.50;2.47;;;28.10;99.90;;;;;;4954320;28;20065;-52
2023/09/06 07:31:05;;;;;;;4.30;2.33;;;28.10;99.90;;;;;;4954113;28;20432;-52
2023/09/06 07:33:31;;;;;;;4.57;2.97;;;28.10;99.90;;;;;;4954405;28;20078;-54
2023/09/06 07:35:57;;;;;;;4.18;2.15;;;28.10;99.90;;;;;;4954622;28;20479;-53
2023/09/06 07:38:22;;;;;;;5.18;2.50;;;28.10;99.90;;;;;;4954297;28;20066;-53
2023/09/06 07:40:56;;;;;;;4.40;2.58;;;28.10;99.90;;;;;;4954026;28;20511;-54
2023/09/06 07:43:22;;;;;;;5.43;2.30;;;28.10;99.90;;;;;;4954490;28;20094;-57
2023/09/06 07:45:48;;;;;;;4.35;2.63;;;28.10;99.90;;;;;;4952568;29;20125;-54
2023/09/06 07:48:14;;;;;;;3.88;3.00;;;28.10;99.90;;;;;;4953974;28;20031;-53
2023/09/06 07:50:41;;;;;;;4.30;2.72;;;28.20;99.90;;;;;;4954161;29;20051;-53
2023/09/06 07:53:07;;;;;;;4.47;2.15;;;28.10;99.90;;;;;;4954028;28;20039;-54
2023/09/06 07:55:32;;;;;;;4.45;2.20;;;28.20;99.90;;;;;;4954049;28;20035;-54
2023/09/06 07:57:58;;;;;;;2.60;1.90;;;28.20;99.90;;;;;;4954396;28;20070;-53
2023/09/06 08:00:25;;;;;;;4.78;2.58;;;28.20;99.90;;;;;;4953973;28;20039;-52
2023/09/06 08:02:54;;;;;;;4.97;2.35;;;28.20;99.90;;;;;;4953772;28;20039;-51
2023/09/06 08:05:20;;;;;;;3.95;2.28;;;28.20;99.90;;;;;;4952978;29;20532;-52
2023/09/06 08:07:46;;;;;;;6.90;3.30;;;28.30;99.90;;;;;;4953971;28;20046;-53
2023/09/06 08:10:13;;;;;;;5.22;2.70;;;28.30;99.90;;;;;;4953050;28;20139;-53
2023/09/06 08:12:39;;;;;;;4.43;2.80;;;28.30;99.90;;;;;;4953751;28;20034;-53
2023/09/06 08:15:07;;;;;;;4.80;2.60;;;28.30;99.90;;;;;;4954098;29;20027;-53
2023/09/06 08:17:33;;;;;;;5.25;2.58;;;28.30;99.90;;;;;;4953913;29;20023;-53
2023/09/06 08:19:59;;;;;;;4.38;2.47;;;28.30;99.90;;;;;;4953882;29;20467;-53
2023/09/06 08:22:25;;;;;;;3.53;2.08;;;28.30;99.90;;;;;;4953948;28;20035;-52
2023/09/06 08:24:50;;;;;;;4.25;2.63;;;28.30;99.90;;;;;;4953527;29;20520;-52
2023/09/06 08:27:16;;;;;;;8.23;2.85;;;28.30;99.90;;;;;;4954000;28;20038;-53
2023/09/06 08:29:42;;;;;;;4.85;2.63;;;28.30;99.90;;;;;;4953175;29;20547;-52
2023/09/06 08:32:08;;;;;;;5.07;2.75;;;28.30;99.90;;;;;;4951349;29;20019;-53
2023/09/06 08:34:34;;;;;;;6.22;2.50;;;28.40;99.90;;;;;;4953791;29;20043;-52
2023/09/06 08:36:59;;;;;;;5.97;2.58;;;28.40;99.90;;;;;;4953788;29;20029;-53
2023/09/06 08:39:25;;;;;;;4.95;2.33;;;28.30;99.90;;;;;;4951968;28;20051;-52
2023/09/06 08:41:53;;;;;;;3.97;2.40;;;28.40;99.90;;;;;;4955802;29;20027;-49
2023/09/06 08:44:24;;;;;;;3.47;2.63;;;28.40;99.90;;;;;;4961755;28;20042;-48
2023/09/06 08:46:53;;;;;;;3.60;2.08;;;28.40;99.90;;;;;;4957495;28;20053;-48
2023/09/06 08:49:20;;;;;;;7.07;3.08;;;28.40;99.90;;;;;;4957338;28;20023;-51
2023/09/06 08:51:47;;;;;;;6.65;2.60;;;28.40;99.90;;;;;;4957272;29;20063;-48
2023/09/06 08:54:14;;;;;;;9.73;3.60;;;28.40;99.90;;;;;;4956318;28;20023;-49
2023/09/06 08:56:40;;;;;;;7.25;2.97;;;28.50;99.90;;;;;;4970980;28;20031;-50
2023/09/06 08:59:06;;;;;;;11.10;3.47;;;28.40;99.90;;;;;;4957085;28;20046;-50
2023/09/06 09:01:32;;;;;;;8.32;3.28;;;28.40;99.90;;;;;;4957234;28;20049;-52
2023/09/06 09:03:57;;;;;;;12.45;3.05;;;28.50;99.90;;;;;;4957243;28;20031;-51
2023/09/06 09:06:23;;;;;;;14.18;3.85;;;28.50;99.90;;;;;;4955828;29;20027;-49
2023/09/06 09:08:49;;;;;;;10.05;3.85;;;28.50;99.90;;;;;;4957249;28;20047;-50
2023/09/06 09:11:20;;;;;;;10.07;2.88;;;28.50;99.90;;;;;;4957135;28;20078;-52
2023/09/06 09:13:48;;;;;;;20.15;4.30;;;28.60;99.90;;;;;;4956825;28;20102;-52
2023/09/06 09:16:16;;;;;;;11.65;3.05;;;28.60;99.90;;;;;;4955683;29;20023;-50
2023/09/06 09:18:44;;;;;;;16.20;4.57;;;28.60;99.90;;;;;;4956716;28;20030;-52
2023/09/06 09:21:11;;;;;;;14.00;4.32;;;28.60;99.90;;;;;;4956945;28;20436;-52
2023/09/06 09:23:46;;;;;;;15.60;4.57;;;28.60;99.90;;;;;;4955734;29;20099;-50
2023/09/06 09:26:12;;;;;;;15.50;3.40;;;28.60;99.90;;;;;;4956891;28;20024;-50
2023/09/06 09:28:41;;;;;;;17.13;4.60;;;28.60;99.90;;;;;;4971631;28;20031;-50
2023/09/06 09:31:13;;;;;;;19.08;4.32;;;28.60;99.90;;;;;;4955321;29;20061;-51
2023/09/06 09:33:39;;;;;;;13.02;4.10;;;28.60;99.90;;;;;;4956361;28;20027;-51
2023/09/06 09:36:06;;;;;;;19.83;4.20;;;28.60;99.90;;;;;;4955708;29;20115;-58
2023/09/06 09:38:32;;;;;;;18.65;4.22;;;28.60;99.90;;;;;;4956683;28;20031;-55
2023/09/06 09:41:05;;;;;;;22.20;5.60;;;28.60;99.90;;;;;;4956409;28;20039;-56
2023/09/06 09:43:31;;;;;;;27.70;4.47;;;28.60;99.90;;;;;;4956263;28;20070;-54
2023/09/06 09:45:57;;;;;;;30.65;4.95;;;28.70;99.90;;;;;;4971268;28;20047;-53
2023/09/06 09:48:29;;;;;;;28.88;6.13;;;28.70;99.90;;;;;;4955034;29;20034;-54
2023/09/06 09:50:56;;;;;;;21.23;4.75;;;28.80;99.90;;;;;;4956175;28;20020;-56
2023/09/06 09:53:23;;;;;;;28.23;6.10;;;28.80;99.90;;;;;;4956237;28;20550;-49
2023/09/06 09:55:51;;;;;;;26.38;5.25;;;28.90;99.90;;;;;;4956086;28;20034;-48
2023/09/06 09:58:19;;;;;;;33.47;5.65;;;28.90;99.90;;;;;;4955917;28;20031;-51
2023/09/06 10:00:45;;;;;;;;;;;29.00;99.90;;;;;;4956361;28;20051;-53
2023/09/06 10:03:13;;;;;;;40.65;7.07;;;29.00;99.90;;;;;;4956049;28;19959;-53
2023/09/06 10:05:41;;;;;;;34.45;5.95;;;29.00;99.90;;;;;;4956118;28;20038;-49
2023/09/06 10:08:09;;;;;;;44.40;5.90;;;29.10;99.90;;;;;;4956116;28;20028;-53
2023/09/06 10:10:38;;;;;;;43.17;6.75;;;29.10;99.90;;;;;;4956313;28;20027;-52
2023/09/06 10:13:07;;;;;;;35.83;8.00;;;29.10;99.90;;;;;;4956108;28;20091;-53
2023/09/06 10:15:35;;;;;;;38.83;6.25;;;29.20;99.90;;;;;;4956054;28;20472;-55
2023/09/06 10:18:00;;;;;;;;;;;29.20;99.90;;;;;;4956134;28;20031;-54
2023/09/06 10:20:30;;;;;;;30.75;5.43;;;29.30;99.90;;;;;;4955146;28;20334;-53
2023/09/06 10:22:57;;;;;;;45.42;7.90;;;29.30;99.90;;;;;;4955225;28;20023;-47
2023/09/06 10:25:25;;;;;;;54.53;7.95;;;29.40;99.90;;;;;;4953880;28;20031;-51
2023/09/06 10:27:55;;;;;;;30.95;5.28;;;29.40;99.90;;;;;;4954816;28;20357;-51
2023/09/06 10:30:50;;;;;;;49.38;8.02;;;29.40;99.90;;;;;;4954743;29;20114;-53
2023/09/06 10:33:35;;;;;;;52.47;8.27;;;29.50;99.90;;;;;;4954702;28;20438;-48
2023/09/06 10:36:09;;;;;;;48.92;7.70;;;29.60;99.90;;;;;;4953379;29;20341;-50
2023/09/06 10:38:57;;;;;;;54.08;7.15;;;29.60;99.90;;;;;;4955395;28;20468;-54
2023/09/06 10:41:26;;;;;;;65.60;9.77;;;29.60;99.90;;;;;;4954614;28;20031;-47
2023/09/06 10:43:58;;;;;;;118.63;11.13;;;29.70;99.90;;;;;;4954012;28;20075;-47
2023/09/06 10:46:34;;;;;;;59.20;10.75;;;29.70;99.90;;;;;;4954779;28;20078;-50
2023/09/06 10:49:18;;;;;;;68.22;12.02;;;29.80;99.90;;;;;;4955151;28;20094;-56
2023/09/06 10:52:08;;;;;;;52.45;10.02;;;29.80;99.90;;;;;;4935989;29;20040;-54
2023/09/06 10:54:44;;;;;;;58.95;9.57;;;29.90;99.90;;;;;;4935826;29;20016;-50
2023/09/06 10:57:11;;;;;;;51.05;9.05;;;29.90;99.90;;;;;;4935985;29;20384;-53
2023/09/06 10:59:45;;;;;;;60.80;13.95;;;29.90;99.90;;;;;;4935446;29;20054;-47
2023/09/06 11:02:22;;;;;;;66.35;11.40;;;30.00;99.90;;;;;;4950741;29;20423;-50
2023/09/06 11:05:02;;;;;;;57.85;8.70;;;30.00;99.90;;;;;;4952749;28;20082;-50
2023/09/06 11:07:38;;;;;;;50.75;9.90;;;30.10;99.90;;;;;;4943884;29;20444;-52
2023/09/06 11:10:06;;;;;;;52.47;10.38;;;30.10;99.90;;;;;;4953612;29;20125;-55
2023/09/06 11:12:32;;;;;;;45.20;9.40;;;30.20;99.90;;;;;;4954427;28;20035;-54
2023/09/06 11:14:58;;;;;;;53.95;7.63;;;30.20;99.90;;;;;;4954042;28;20139;-51
2023/09/06 11:17:26;;;;;;;67.53;13.02;;;30.20;99.90;;;;;;4954206;28;20098;-53
2023/09/06 11:19:52;;;;;;;53.45;8.27;;;30.20;99.90;;;;;;4954571;28;20121;-52
2023/09/06 11:22:19;;;;;;;68.22;10.50;;;30.30;99.90;;;;;;4954743;28;20114;-53
2023/09/06 11:24:45;;;;;;;49.15;8.05;;;30.20;99.90;;;;;;4954772;29;20027;-53
2023/09/06 11:27:29;;;;;;;64.68;9.60;;;30.30;99.90;;;;;;4954761;28;20108;-53
2023/09/06 11:30:10;;;;;;;62.03;9.43;;;30.30;99.90;;;;;;4954619;28;20469;-53
2023/09/06 11:32:39;;;;;;;56.50;8.15;;;30.30;99.90;;;;;;4954624;28;20027;-53
2023/09/06 11:35:08;;;;;;;74.47;10.23;;;30.30;99.90;;;;;;4954637;28;20033;-54
2023/09/06 11:37:37;;;;;;;52.22;7.90;;;30.30;99.90;;;;;;4954505;28;20043;-53
2023/09/06 11:40:13;;;;;;;65.90;9.43;;;30.30;99.90;;;;;;4954525;28;20047;-52
2023/09/06 11:42:44;;;;;;;54.65;8.48;;;30.30;99.90;;;;;;4953201;28;20053;-53
2023/09/06 11:45:14;;;;;;;35.15;7.97;;;30.30;99.90;;;;;;4954536;28;20027;-53
2023/09/06 11:47:42;;;;;;;59.88;10.40;;;30.30;99.90;;;;;;4954567;28;20507;-53
2023/09/06 11:50:11;;;;;;;48.92;9.63;;;30.30;99.90;;;;;;4954296;28;20027;-52
2023/09/06 11:52:39;;;;;;;48.30;9.32;;;30.30;99.90;;;;;;4954316;28;20058;-53
2023/09/06 11:55:08;;;;;;;50.95;7.80;;;30.30;99.90;;;;;;4954306;28;20118;-53
2023/09/06 11:57:37;;;;;;;54.30;10.00;;;30.40;99.90;;;;;;4968906;28;20031;-53
2023/09/06 12:00:18;;;;;;;52.30;9.27;;;30.40;99.90;;;;;;4952990;29;20058;-54
2023/09/06 12:02:47;;;;;;;53.00;9.63;;;30.40;99.90;;;;;;4954139;28;20492;-53
2023/09/06 12:05:16;;;;;;;68.28;11.18;;;30.40;99.90;;;;;;4954169;28;20051;-53
2023/09/06 12:07:43;;;;;;;52.38;8.90;;;30.50;99.90;;;;;;4953643;29;20031;-54
2023/09/06 12:10:09;;;;;;;48.88;8.98;;;30.50;99.90;;;;;;4953678;28;20026;-56
2023/09/06 12:12:42;;;;;;;50.80;9.98;;;30.50;99.90;;;;;;4953456;28;20395;-52
2023/09/06 12:15:19;;;;;;;47.20;11.50;;;30.50;99.90;;;;;;4953844;28;20107;-52
2023/09/06 12:17:49;;;;;;;57.47;10.55;;;30.60;99.90;;;;;;4956171;29;20016;-49
2023/09/06 12:20:20;;;;;;;46.97;7.93;;;30.60;99.90;;;;;;4955924;29;20398;-49
2023/09/06 12:22:47;;;;;;;49.53;10.40;;;30.70;99.90;;;;;;4957017;28;20102;-49
2023/09/06 12:25:18;;;;;;;48.17;8.50;;;30.70;99.90;;;;;;4957895;28;20082;-50
2023/09/06 12:27:44;;;;;;;45.00;10.57;;;30.80;99.90;;;;;;4938906;29;20104;-49
2023/09/06 12:30:11;;;;;;;40.58;9.85;;;30.90;99.90;;;;;;4943369;29;20424;-50
2023/09/06 12:32:40;;;;;;;54.40;10.45;;;30.90;99.90;;;;;;4956455;28;20072;-52
2023/09/06 12:35:07;;;;;;;54.25;9.93;;;31.00;99.90;;;;;;4957038;28;20042;-49
2023/09/06 12:37:37;;;;;;;44.78;8.52;;;31.00;99.90;;;;;;4957466;28;20042;-49
2023/09/06 12:40:13;;;;;;;52.10;9.57;;;31.00;99.90;;;;;;4957654;28;20040;-50
2023/09/06 12:42:44;;;;;;;51.23;9.30;;;31.00;99.90;;;;;;4949761;29;20077;-52
2023/09/06 12:45:24;;;;;;;49.08;9.18;;;31.00;99.90;;;;;;4956531;29;20034;-49
2023/09/06 12:47:50;;;;;;;39.65;8.13;;;31.00;99.90;;;;;;4957216;28;20431;-49
2023/09/06 12:50:16;;;;;;;53.22;7.88;;;31.00;99.90;;;;;;4957798;29;20027;-49
2023/09/06 12:52:42;;;;;;;51.88;8.45;;;31.00;99.90;;;;;;4957264;28;20494;-50